createdAt,value
2018-07-12T00:00:24.790Z,0.00
2018-07-12T00:01:24.772Z,0.00
2018-07-12T00:02:24.762Z,0.00
2018-07-12T00:03:24.746Z,0.00
2018-07-12T00:04:24.733Z,0.00
2018-07-12T00:05:24.711Z,0.00
2018-07-12T00:06:24.700Z,0.00
2018-07-12T00:07:24.686Z,0.00
2018-07-12T00:08:24.673Z,0.00
2018-07-12T00:09:24.656Z,0.00
2018-07-12T00:10:24.636Z,0.00
2018-07-12T00:11:24.621Z,0.00
2018-07-12T00:12:24.611Z,0.00
2018-07-12T00:13:24.595Z,0.00
2018-07-12T00:14:24.576Z,0.00
2018-07-12T00:15:24.560Z,0.00
2018-07-12T00:16:24.544Z,0.00
2018-07-12T00:17:24.535Z,0.00
2018-07-12T00:18:24.512Z,0.00
2018-07-12T00:19:24.497Z,0.00
2018-07-12T00:20:24.484Z,0.00
2018-07-12T00:21:24.474Z,0.00
2018-07-12T00:22:24.451Z,0.00
2018-07-12T00:23:24.441Z,0.00
2018-07-12T00:24:24.425Z,0.00
2018-07-12T00:25:24.407Z,0.00
2018-07-12T00:26:24.393Z,0.00
2018-07-12T00:27:24.381Z,0.00
2018-07-12T00:28:24.366Z,0.00
2018-07-12T00:29:24.345Z,0.00
2018-07-12T00:30:24.330Z,0.00
2018-07-12T00:31:24.315Z,0.00
2018-07-12T00:32:24.306Z,0.00
2018-07-12T00:33:24.294Z,0.00
2018-07-12T00:34:24.267Z,0.00
2018-07-12T00:35:24.261Z,0.00
2018-07-12T00:36:24.240Z,0.00
2018-07-12T00:37:24.230Z,0.00
2018-07-12T00:38:24.208Z,0.00
2018-07-12T00:39:24.195Z,0.00
2018-07-12T00:40:24.186Z,0.00
2018-07-12T00:41:24.170Z,0.00
2018-07-12T00:42:24.148Z,0.00
2018-07-12T00:43:24.132Z,0.00
2018-07-12T00:44:24.117Z,0.00
2018-07-12T00:45:24.104Z,0.00
2018-07-12T00:46:24.091Z,0.00
2018-07-12T00:47:24.072Z,0.00
2018-07-12T00:48:24.062Z,0.00
2018-07-12T00:49:24.047Z,0.00
2018-07-12T00:50:24.034Z,0.00
2018-07-12T00:51:24.012Z,0.00
2018-07-12T00:52:24.002Z,0.00
2018-07-12T00:53:23.985Z,0.00
2018-07-12T00:54:23.966Z,0.00
2018-07-12T00:55:23.949Z,0.00
2018-07-12T00:56:23.937Z,0.00
2018-07-12T00:57:23.927Z,0.00
2018-07-12T00:58:23.911Z,0.00
2018-07-12T00:59:23.889Z,0.00
2018-07-12T01:00:23.873Z,0.00
2018-07-12T01:01:23.863Z,0.00
2018-07-12T01:02:23.841Z,0.00
2018-07-12T01:03:23.828Z,0.00
2018-07-12T01:04:23.812Z,0.00
2018-07-12T01:05:23.802Z,0.00
2018-07-12T01:06:23.783Z,0.00
2018-07-12T01:07:23.766Z,0.00
2018-07-12T01:08:23.750Z,0.00
2018-07-12T01:09:23.741Z,0.00
2018-07-12T01:10:23.718Z,0.00
2018-07-12T01:11:23.708Z,0.00
2018-07-12T01:12:23.692Z,0.00
2018-07-12T01:13:23.679Z,0.00
2018-07-12T01:14:23.668Z,0.00
2018-07-12T01:15:23.644Z,0.00
2018-07-12T01:16:23.626Z,0.00
2018-07-12T01:17:23.619Z,0.00
2018-07-12T01:18:23.594Z,0.00
2018-07-12T01:19:23.581Z,0.00
2018-07-12T01:20:23.568Z,0.00
2018-07-12T01:21:23.552Z,0.00
2018-07-12T01:22:23.533Z,0.00
2018-07-12T01:23:23.523Z,0.00
2018-07-12T01:24:23.504Z,0.00
2018-07-12T01:25:23.491Z,0.00
2018-07-12T01:26:23.475Z,0.00
2018-07-12T01:27:23.456Z,0.00
2018-07-12T01:28:23.446Z,0.00
2018-07-12T01:29:23.421Z,0.00
2018-07-12T01:30:23.414Z,0.00
2018-07-12T01:31:23.392Z,0.00
2018-07-12T01:32:23.385Z,0.00
2018-07-12T01:33:23.365Z,0.00
2018-07-12T01:34:23.353Z,0.00
2018-07-12T01:35:23.330Z,0.00
2018-07-12T01:36:23.318Z,0.00
2018-07-12T01:37:23.299Z,0.00
2018-07-12T01:38:23.282Z,0.00
2018-07-12T01:39:23.267Z,0.00
2018-07-12T01:40:23.251Z,0.00
2018-07-12T01:41:23.237Z,0.00
2018-07-12T01:42:23.221Z,0.00
2018-07-12T01:43:23.208Z,0.00
2018-07-12T01:44:23.189Z,0.00
2018-07-12T01:45:23.173Z,0.00
2018-07-12T01:46:23.163Z,0.00
2018-07-12T01:47:23.154Z,0.00
2018-07-12T01:48:23.131Z,0.00
2018-07-12T01:49:23.119Z,0.00
2018-07-12T01:50:23.099Z,0.00
2018-07-12T01:51:23.087Z,0.00
2018-07-12T01:52:23.064Z,0.00
2018-07-12T01:53:23.048Z,0.00
2018-07-12T01:54:23.028Z,0.00
2018-07-12T01:55:23.019Z,0.00
2018-07-12T01:56:23.010Z,0.00
2018-07-12T01:57:22.990Z,0.00
2018-07-12T01:58:22.970Z,0.00
2018-07-12T01:59:22.957Z,0.00
2018-07-12T02:00:22.938Z,0.00
2018-07-12T02:01:22.929Z,0.00
2018-07-12T02:02:22.909Z,0.00
2018-07-12T02:03:22.889Z,0.00
2018-07-12T02:04:22.880Z,0.00
2018-07-12T02:05:22.867Z,0.00
2018-07-12T02:06:22.844Z,0.00
2018-07-12T02:07:22.835Z,0.00
2018-07-12T02:08:22.819Z,0.00
2018-07-12T02:09:22.793Z,0.00
2018-07-12T02:10:22.781Z,0.00
2018-07-12T02:11:22.767Z,0.00
2018-07-12T02:12:22.758Z,0.00
2018-07-12T02:13:22.739Z,0.00
2018-07-12T02:14:22.727Z,0.00
2018-07-12T02:15:22.704Z,0.00
2018-07-12T02:16:22.688Z,0.00
2018-07-12T02:17:22.679Z,0.00
2018-07-12T02:18:22.663Z,0.00
2018-07-12T02:19:22.648Z,0.00
2018-07-12T02:20:22.628Z,0.00
2018-07-12T02:21:22.615Z,0.00
2018-07-12T02:22:22.595Z,0.00
2018-07-12T02:23:22.582Z,0.00
2018-07-12T02:24:22.564Z,0.00
2018-07-12T02:25:22.564Z,0.00
2018-07-12T02:26:22.541Z,0.00
2018-07-12T02:27:22.522Z,0.00
2018-07-12T02:28:22.509Z,0.00
2018-07-12T02:29:22.497Z,0.00
2018-07-12T02:30:22.474Z,0.00
2018-07-12T02:31:22.456Z,0.00
2018-07-12T02:32:22.446Z,0.00
2018-07-12T02:33:22.436Z,0.00
2018-07-12T02:34:22.410Z,0.00
2018-07-12T02:35:22.398Z,0.00
2018-07-12T02:36:22.385Z,0.00
2018-07-12T02:37:22.367Z,0.00
2018-07-12T02:38:22.351Z,0.00
2018-07-12T02:39:22.341Z,0.00
2018-07-12T02:40:22.324Z,0.00
2018-07-12T02:41:22.306Z,0.00
2018-07-12T02:42:22.289Z,0.00
2018-07-12T02:43:22.277Z,0.00
2018-07-12T02:44:22.258Z,0.00
2018-07-12T02:45:22.253Z,0.00
2018-07-12T02:46:22.230Z,0.00
2018-07-12T02:47:22.219Z,0.00
2018-07-12T02:48:22.198Z,0.00
2018-07-12T02:49:22.181Z,0.00
2018-07-12T02:50:22.175Z,0.00
2018-07-12T02:51:22.154Z,0.00
2018-07-12T02:52:22.142Z,0.00
2018-07-12T02:53:22.128Z,0.00
2018-07-12T02:54:22.108Z,0.00
2018-07-12T02:55:22.095Z,0.00
2018-07-12T02:56:22.076Z,0.00
2018-07-12T02:57:22.061Z,0.00
2018-07-12T02:58:22.051Z,0.00
2018-07-12T02:59:22.038Z,0.00
2018-07-12T03:00:22.024Z,0.00
2018-07-12T03:01:22.003Z,0.00
2018-07-12T03:02:21.990Z,0.00
2018-07-12T03:03:21.973Z,0.00
2018-07-12T03:04:21.953Z,0.00
2018-07-12T03:05:21.944Z,0.00
2018-07-12T03:06:21.932Z,0.00
2018-07-12T03:07:21.915Z,0.00
2018-07-12T03:08:21.898Z,0.00
2018-07-12T03:09:21.889Z,0.00
2018-07-12T03:10:21.867Z,0.00
2018-07-12T03:11:21.855Z,0.00
2018-07-12T03:12:21.840Z,0.00
2018-07-12T03:13:21.822Z,0.00
2018-07-12T03:14:21.813Z,0.00
2018-07-12T03:15:21.796Z,0.00
2018-07-12T03:16:21.781Z,0.00
2018-07-12T03:17:21.759Z,0.00
2018-07-12T03:18:21.749Z,0.00
2018-07-12T03:19:21.737Z,0.00
2018-07-12T03:20:21.721Z,0.00
2018-07-12T03:21:21.698Z,0.00
2018-07-12T03:22:21.686Z,0.00
2018-07-12T03:23:21.669Z,0.00
2018-07-12T03:24:21.653Z,0.00
2018-07-12T03:25:21.644Z,0.00
2018-07-12T03:26:21.638Z,0.00
2018-07-12T03:27:21.609Z,0.00
2018-07-12T03:28:21.593Z,0.00
2018-07-12T03:29:21.579Z,0.00
2018-07-12T03:30:21.572Z,0.00
2018-07-12T03:31:21.557Z,0.00
2018-07-12T03:32:21.535Z,0.00
2018-07-12T03:33:21.526Z,0.00
2018-07-12T03:34:21.507Z,0.00
2018-07-12T03:35:21.493Z,0.00
2018-07-12T03:36:21.481Z,5.63
2018-07-12T03:37:21.458Z,5.63
2018-07-12T03:38:21.449Z,5.63
2018-07-12T03:39:21.431Z,5.63
2018-07-12T03:40:21.474Z,5.63
2018-07-12T03:41:21.403Z,5.63
2018-07-12T03:42:21.388Z,5.63
2018-07-12T03:43:21.377Z,5.63
2018-07-12T03:44:21.354Z,5.63
2018-07-12T03:45:21.345Z,5.63
2018-07-12T03:46:21.330Z,5.63
2018-07-12T03:47:21.317Z,5.63
2018-07-12T03:48:21.303Z,5.63
2018-07-12T03:49:21.283Z,5.63
2018-07-12T03:50:21.265Z,11.25
2018-07-12T03:51:21.256Z,11.25
2018-07-12T03:52:21.236Z,11.25
2018-07-12T03:53:21.223Z,16.88
2018-07-12T03:54:21.207Z,16.88
2018-07-12T03:55:21.191Z,11.25
2018-07-12T03:56:21.175Z,11.25
2018-07-12T03:57:21.169Z,11.25
2018-07-12T03:58:21.152Z,16.88
2018-07-12T03:59:21.139Z,22.50
2018-07-12T04:00:21.118Z,22.50
2018-07-12T04:01:21.098Z,28.13
2018-07-12T04:02:21.092Z,28.13
2018-07-12T04:03:21.078Z,28.13
2018-07-12T04:04:21.063Z,28.13
2018-07-12T04:05:21.050Z,28.13
2018-07-12T04:06:21.037Z,28.13
2018-07-12T04:07:21.018Z,28.13
2018-07-12T04:08:20.999Z,33.75
2018-07-12T04:09:20.982Z,33.75
2018-07-12T04:10:20.970Z,39.38
2018-07-12T04:11:20.953Z,39.38
2018-07-12T04:12:20.960Z,45.00
2018-07-12T04:13:20.921Z,50.63
2018-07-12T04:14:20.915Z,56.25
2018-07-12T04:15:20.899Z,73.13
2018-07-12T04:16:20.880Z,78.75
2018-07-12T04:17:20.864Z,90.00
2018-07-12T04:18:20.854Z,101.25
2018-07-12T04:19:20.835Z,106.88
2018-07-12T04:20:20.822Z,112.50
2018-07-12T04:21:20.812Z,118.13
2018-07-12T04:22:20.791Z,123.75
2018-07-12T04:23:20.777Z,140.63
2018-07-12T04:24:20.767Z,151.88
2018-07-12T04:25:20.748Z,157.50
2018-07-12T04:26:20.738Z,157.50
2018-07-12T04:27:20.727Z,168.75
2018-07-12T04:28:20.718Z,191.25
2018-07-12T04:29:20.697Z,208.13
2018-07-12T04:30:20.678Z,213.75
2018-07-12T04:31:20.662Z,191.25
2018-07-12T04:32:20.652Z,168.75
2018-07-12T04:33:20.636Z,146.25
2018-07-12T04:34:20.636Z,135.00
2018-07-12T04:35:20.610Z,146.25
2018-07-12T04:36:20.595Z,157.50
2018-07-12T04:37:20.582Z,140.63
2018-07-12T04:38:20.564Z,129.38
2018-07-12T04:39:20.558Z,129.38
2018-07-12T04:40:20.539Z,123.75
2018-07-12T04:41:20.520Z,129.38
2018-07-12T04:42:20.513Z,140.63
2018-07-12T04:43:20.491Z,151.88
2018-07-12T04:44:20.478Z,163.13
2018-07-12T04:45:20.471Z,163.13
2018-07-12T04:46:20.469Z,157.50
2018-07-12T04:47:20.446Z,157.50
2018-07-12T04:48:20.424Z,151.88
2018-07-12T04:49:20.410Z,151.88
2018-07-12T04:50:20.398Z,157.50
2018-07-12T04:51:20.437Z,168.75
2018-07-12T04:52:20.369Z,163.13
2018-07-12T04:53:20.398Z,163.13
2018-07-12T04:54:20.340Z,163.13
2018-07-12T04:55:20.338Z,163.13
2018-07-12T04:56:20.308Z,163.13
2018-07-12T04:57:20.298Z,180.00
2018-07-12T04:58:20.349Z,213.75
2018-07-12T04:59:20.269Z,236.25
2018-07-12T05:00:20.257Z,253.13
2018-07-12T05:01:20.239Z,253.13
2018-07-12T05:02:20.233Z,258.75
2018-07-12T05:03:20.219Z,241.88
2018-07-12T05:04:20.203Z,247.50
2018-07-12T05:05:20.181Z,241.88
2018-07-12T05:06:20.163Z,236.25
2018-07-12T05:07:20.156Z,219.38
2018-07-12T05:08:20.145Z,208.13
2018-07-12T05:09:20.127Z,213.75
2018-07-12T05:10:20.123Z,225.00
2018-07-12T05:11:20.098Z,219.38
2018-07-12T05:12:20.082Z,230.63
2018-07-12T05:13:20.069Z,213.75
2018-07-12T05:14:20.057Z,202.50
2018-07-12T05:15:20.044Z,196.88
2018-07-12T05:16:20.031Z,191.25
2018-07-12T05:17:20.015Z,196.88
2018-07-12T05:18:19.999Z,202.50
2018-07-12T05:19:19.985Z,213.75
2018-07-12T05:20:19.971Z,225.00
2018-07-12T05:21:19.968Z,219.38
2018-07-12T05:22:19.941Z,196.88
2018-07-12T05:23:19.935Z,196.88
2018-07-12T05:24:19.923Z,196.88
2018-07-12T05:25:19.903Z,213.75
2018-07-12T05:26:19.887Z,225.00
2018-07-12T05:27:19.871Z,225.00
2018-07-12T05:28:19.865Z,219.38
2018-07-12T05:29:19.852Z,225.00
2018-07-12T05:30:19.839Z,225.00
2018-07-12T05:31:19.823Z,230.63
2018-07-12T05:32:19.810Z,230.63
2018-07-12T05:33:19.794Z,230.63
2018-07-12T05:34:19.776Z,225.00
2018-07-12T05:35:19.798Z,213.75
2018-07-12T05:36:19.747Z,213.75
2018-07-12T05:37:19.742Z,208.13
2018-07-12T05:38:19.724Z,208.13
2018-07-12T05:39:19.735Z,208.13
2018-07-12T05:40:19.696Z,208.13
2018-07-12T05:41:19.680Z,202.50
2018-07-12T05:42:19.677Z,202.50
2018-07-12T05:43:19.658Z,208.13
2018-07-12T05:44:19.645Z,213.75
2018-07-12T05:45:19.629Z,219.38
2018-07-12T05:46:19.619Z,230.63
2018-07-12T05:47:19.597Z,258.75
2018-07-12T05:48:19.584Z,298.13
2018-07-12T05:49:19.574Z,275.63
2018-07-12T05:50:19.557Z,241.88
2018-07-12T05:51:19.541Z,230.63
2018-07-12T05:52:19.528Z,247.50
2018-07-12T05:53:19.525Z,258.75
2018-07-12T05:54:19.499Z,275.63
2018-07-12T05:55:19.487Z,292.50
2018-07-12T05:56:19.474Z,365.63
2018-07-12T05:57:19.467Z,382.50
2018-07-12T05:58:19.448Z,365.63
2018-07-12T05:59:19.440Z,371.25
2018-07-12T06:00:19.424Z,382.50
2018-07-12T06:01:19.407Z,393.75
2018-07-12T06:02:19.398Z,348.75
2018-07-12T06:03:19.384Z,309.38
2018-07-12T06:04:19.375Z,365.63
2018-07-12T06:05:19.363Z,399.38
2018-07-12T06:06:19.351Z,343.13
2018-07-12T06:07:19.331Z,315.00
2018-07-12T06:08:19.322Z,303.75
2018-07-12T06:09:19.296Z,315.00
2018-07-12T06:10:19.293Z,331.88
2018-07-12T06:11:19.285Z,337.50
2018-07-12T06:12:19.267Z,326.25
2018-07-12T06:13:19.302Z,354.38
2018-07-12T06:14:19.248Z,376.88
2018-07-12T06:15:19.236Z,405.00
2018-07-12T06:16:19.217Z,405.00
2018-07-12T06:17:19.210Z,388.13
2018-07-12T06:18:19.191Z,382.50
2018-07-12T06:19:19.177Z,405.00
2018-07-12T06:20:19.168Z,438.75
2018-07-12T06:21:19.155Z,433.13
2018-07-12T06:22:19.142Z,399.38
2018-07-12T06:23:19.132Z,376.88
2018-07-12T06:24:19.119Z,399.38
2018-07-12T06:25:19.110Z,405.00
2018-07-12T06:26:19.091Z,382.50
2018-07-12T06:27:19.085Z,365.63
2018-07-12T06:28:19.068Z,382.50
2018-07-12T06:29:19.061Z,376.88
2018-07-12T06:30:19.043Z,376.88
2018-07-12T06:31:19.037Z,365.63
2018-07-12T06:32:19.020Z,348.75
2018-07-12T06:33:19.014Z,360.00
2018-07-12T06:34:19.000Z,382.50
2018-07-12T06:35:18.988Z,376.88
2018-07-12T06:36:18.970Z,405.00
2018-07-12T06:37:19.040Z,444.38
2018-07-12T06:38:18.948Z,466.88
2018-07-12T06:39:18.935Z,517.50
2018-07-12T06:40:18.922Z,545.63
2018-07-12T06:41:18.923Z,630.00
2018-07-12T06:42:18.906Z,630.00
2018-07-12T06:43:18.890Z,590.63
2018-07-12T06:44:18.884Z,556.88
2018-07-12T06:45:18.872Z,562.50
2018-07-12T06:46:18.862Z,562.50
2018-07-12T06:47:18.843Z,596.25
2018-07-12T06:48:18.843Z,568.13
2018-07-12T06:49:18.820Z,585.00
2018-07-12T06:50:18.814Z,579.38
2018-07-12T06:51:18.799Z,607.50
2018-07-12T06:52:18.789Z,624.38
2018-07-12T06:53:18.782Z,624.38
2018-07-12T06:54:18.769Z,635.63
2018-07-12T06:55:18.757Z,630.00
2018-07-12T06:56:18.747Z,630.00
2018-07-12T06:57:18.737Z,613.13
2018-07-12T06:58:18.729Z,630.00
2018-07-12T06:59:18.715Z,613.13
2018-07-12T07:00:18.712Z,551.25
2018-07-12T07:01:18.702Z,556.88
2018-07-12T07:02:18.686Z,500.63
2018-07-12T07:03:18.686Z,466.88
2018-07-12T07:04:18.667Z,461.25
2018-07-12T07:05:18.654Z,483.75
2018-07-12T07:06:18.648Z,495.00
2018-07-12T07:07:18.635Z,500.63
2018-07-12T07:08:18.622Z,540.00
2018-07-12T07:09:18.613Z,573.75
2018-07-12T07:10:18.603Z,573.75
2018-07-12T07:11:18.600Z,568.13
2018-07-12T07:12:18.584Z,528.75
2018-07-12T07:13:18.570Z,534.38
2018-07-12T07:14:18.564Z,573.75
2018-07-12T07:15:18.568Z,607.50
2018-07-12T07:16:18.542Z,624.38
2018-07-12T07:17:18.533Z,601.88
2018-07-12T07:18:18.519Z,703.13
2018-07-12T07:19:18.523Z,646.88
2018-07-12T07:20:18.512Z,691.88
2018-07-12T07:21:18.491Z,725.63
2018-07-12T07:22:18.481Z,725.63
2018-07-12T07:23:18.476Z,669.38
2018-07-12T07:24:18.462Z,579.38
2018-07-12T07:25:18.449Z,466.88
2018-07-12T07:26:18.481Z,427.50
2018-07-12T07:27:18.430Z,399.38
2018-07-12T07:28:18.425Z,421.88
2018-07-12T07:29:18.414Z,438.75
2018-07-12T07:30:18.402Z,433.13
2018-07-12T07:31:18.392Z,410.63
2018-07-12T07:32:18.411Z,399.38
2018-07-12T07:33:18.378Z,427.50
2018-07-12T07:34:18.359Z,438.75
2018-07-12T07:35:18.353Z,455.63
2018-07-12T07:36:18.347Z,478.13
2018-07-12T07:37:18.330Z,495.00
2018-07-12T07:38:18.321Z,489.38
2018-07-12T07:39:18.308Z,489.38
2018-07-12T07:40:18.298Z,500.63
2018-07-12T07:41:18.292Z,495.00
2018-07-12T07:42:18.282Z,472.50
2018-07-12T07:43:18.270Z,438.75
2018-07-12T07:44:18.257Z,421.88
2018-07-12T07:45:18.247Z,416.25
2018-07-12T07:46:18.241Z,450.00
2018-07-12T07:47:18.228Z,343.13
2018-07-12T07:48:18.219Z,315.00
2018-07-12T07:49:18.267Z,286.88
2018-07-12T07:50:18.196Z,292.50
2018-07-12T07:51:18.186Z,298.13
2018-07-12T07:52:18.176Z,303.75
2018-07-12T07:53:18.166Z,326.25
2018-07-12T07:54:18.153Z,348.75
2018-07-12T07:55:18.143Z,450.00
2018-07-12T07:56:18.134Z,393.75
2018-07-12T07:57:18.121Z,421.88
2018-07-12T07:58:18.112Z,461.25
2018-07-12T07:59:18.099Z,461.25
2018-07-12T08:00:18.096Z,466.88
2018-07-12T08:01:18.080Z,495.00
2018-07-12T08:02:18.063Z,506.25
2018-07-12T08:03:18.110Z,579.38
2018-07-12T08:04:18.041Z,646.88
2018-07-12T08:05:18.031Z,703.13
2018-07-12T08:06:18.023Z,776.25
2018-07-12T08:07:18.019Z,804.38
2018-07-12T08:08:18.007Z,793.13
2018-07-12T08:09:17.989Z,731.25
2018-07-12T08:10:17.984Z,714.38
2018-07-12T08:11:17.971Z,753.75
2018-07-12T08:12:17.964Z,776.25
2018-07-12T08:13:17.958Z,781.88
2018-07-12T08:14:17.941Z,776.25
2018-07-12T08:15:17.933Z,753.75
2018-07-12T08:16:17.960Z,742.50
2018-07-12T08:17:17.917Z,725.63
2018-07-12T08:18:17.906Z,736.88
2018-07-12T08:19:17.891Z,770.63
2018-07-12T08:20:17.881Z,781.88
2018-07-12T08:21:17.875Z,776.25
2018-07-12T08:22:17.866Z,759.38
2018-07-12T08:23:17.868Z,714.38
2018-07-12T08:24:17.850Z,697.50
2018-07-12T08:25:17.840Z,742.50
2018-07-12T08:26:17.824Z,776.25
2018-07-12T08:27:17.827Z,765.00
2018-07-12T08:28:17.811Z,753.75
2018-07-12T08:29:17.803Z,804.38
2018-07-12T08:30:17.788Z,826.88
2018-07-12T08:31:17.823Z,838.13
2018-07-12T08:32:17.776Z,849.38
2018-07-12T08:33:17.829Z,939.38
2018-07-12T08:34:17.756Z,911.25
2018-07-12T08:35:17.750Z,883.13
2018-07-12T08:36:17.744Z,815.63
2018-07-12T08:37:17.729Z,787.50
2018-07-12T08:38:17.724Z,753.75
2018-07-12T08:39:17.716Z,815.63
2018-07-12T08:40:17.708Z,855.00
2018-07-12T08:41:17.705Z,883.13
2018-07-12T08:42:17.721Z,922.50
2018-07-12T08:43:17.683Z,860.63
2018-07-12T08:44:17.683Z,843.75
2018-07-12T08:45:17.676Z,720.00
2018-07-12T08:46:17.690Z,658.13
2018-07-12T08:47:17.654Z,523.13
2018-07-12T08:48:17.687Z,444.38
2018-07-12T08:49:17.641Z,433.13
2018-07-12T08:50:17.637Z,511.88
2018-07-12T08:51:17.628Z,585.00
2018-07-12T08:52:17.625Z,669.38
2018-07-12T08:53:17.620Z,759.38
2018-07-12T08:54:17.612Z,860.63
2018-07-12T08:55:17.599Z,978.75
2018-07-12T08:56:17.600Z,984.38
2018-07-12T08:57:17.587Z,1006.88
2018-07-12T08:58:17.581Z,967.50
2018-07-12T08:59:17.574Z,860.63
2018-07-12T09:00:17.578Z,787.50
2018-07-12T09:01:17.562Z,793.13
2018-07-12T09:02:17.559Z,798.75
2018-07-12T09:03:17.552Z,759.38
2018-07-12T09:04:17.549Z,815.63
2018-07-12T09:05:17.540Z,776.25
2018-07-12T09:06:17.542Z,765.00
2018-07-12T09:07:17.535Z,748.13
2018-07-12T09:08:17.524Z,810.00
2018-07-12T09:09:17.524Z,838.13
2018-07-12T09:10:17.514Z,883.13
2018-07-12T09:11:17.507Z,973.13
2018-07-12T09:12:17.498Z,995.63
2018-07-12T09:13:17.497Z,990.00
2018-07-12T09:14:17.485Z,967.50
2018-07-12T09:15:17.483Z,894.38
2018-07-12T09:16:17.481Z,860.63
2018-07-12T09:17:17.476Z,815.63
2018-07-12T09:18:17.469Z,658.13
2018-07-12T09:19:17.465Z,517.50
2018-07-12T09:20:17.455Z,523.13
2018-07-12T09:21:17.446Z,495.00
2018-07-12T09:22:17.450Z,528.75
2018-07-12T09:23:17.443Z,579.38
2018-07-12T09:24:17.430Z,641.25
2018-07-12T09:25:17.465Z,686.25
2018-07-12T09:26:17.421Z,736.88
2018-07-12T09:27:17.420Z,804.38
2018-07-12T09:28:17.411Z,860.63
2018-07-12T09:29:17.482Z,945.00
2018-07-12T09:30:17.404Z,995.63
2018-07-12T09:31:17.392Z,973.13
2018-07-12T09:32:17.390Z,1080.00
2018-07-12T09:33:17.389Z,1119.38
2018-07-12T09:34:17.374Z,1153.13
2018-07-12T09:35:17.374Z,1108.13
2018-07-12T09:36:17.365Z,928.13
2018-07-12T09:37:17.365Z,871.88
2018-07-12T09:38:17.365Z,928.13
2018-07-12T09:39:17.348Z,950.63
2018-07-12T09:40:17.349Z,984.38
2018-07-12T09:41:17.346Z,1006.88
2018-07-12T09:42:17.334Z,1046.25
2018-07-12T09:43:17.326Z,1113.75
2018-07-12T09:44:17.330Z,1035.00
2018-07-12T09:45:17.320Z,967.50
2018-07-12T09:46:17.310Z,821.25
2018-07-12T09:47:17.319Z,725.63
2018-07-12T09:48:17.357Z,725.63
2018-07-12T09:49:17.420Z,748.13
2018-07-12T09:50:17.288Z,669.38
2018-07-12T09:51:17.291Z,731.25
2018-07-12T09:52:17.282Z,748.13
2018-07-12T09:53:17.279Z,798.75
2018-07-12T09:54:17.272Z,894.38
2018-07-12T09:55:17.266Z,973.13
2018-07-12T09:56:17.407Z,984.38
2018-07-12T09:57:17.250Z,871.88
2018-07-12T09:58:17.250Z,916.88
2018-07-12T09:59:17.242Z,978.75
2018-07-12T10:00:17.233Z,1063.13
2018-07-12T10:01:17.299Z,1153.13
2018-07-12T10:02:17.225Z,1271.25
2018-07-12T10:03:17.218Z,1305.00
2018-07-12T10:04:17.217Z,1170.00
2018-07-12T10:05:17.211Z,1096.88
2018-07-12T10:06:17.205Z,1040.63
2018-07-12T10:07:17.199Z,905.63
2018-07-12T10:08:17.199Z,916.88
2018-07-12T10:09:17.192Z,973.13
2018-07-12T10:10:17.188Z,973.13
2018-07-12T10:11:17.178Z,973.13
2018-07-12T10:12:17.175Z,956.25
2018-07-12T10:13:17.174Z,916.88
2018-07-12T10:14:17.169Z,860.63
2018-07-12T10:15:17.159Z,826.88
2018-07-12T10:16:17.158Z,804.38
2018-07-12T10:17:17.157Z,832.50
2018-07-12T10:18:17.146Z,911.25
2018-07-12T10:19:17.142Z,1051.88
2018-07-12T10:20:17.143Z,1158.75
2018-07-12T10:21:17.127Z,1305.00
2018-07-12T10:22:17.130Z,1490.63
2018-07-12T10:23:17.120Z,1552.50
2018-07-12T10:24:17.119Z,1355.63
2018-07-12T10:25:17.105Z,1237.50
2018-07-12T10:26:17.099Z,1220.63
2018-07-12T10:27:17.096Z,1333.13
2018-07-12T10:28:17.095Z,1164.38
2018-07-12T10:29:17.090Z,1102.50
2018-07-12T10:30:17.086Z,1063.13
2018-07-12T10:31:17.079Z,1046.25
2018-07-12T10:32:17.069Z,1057.50
2018-07-12T10:33:17.063Z,1080.00
2018-07-12T10:34:17.061Z,1136.25
2018-07-12T10:35:17.059Z,1198.13
2018-07-12T10:36:17.053Z,1248.75
2018-07-12T10:37:17.050Z,1248.75
2018-07-12T10:38:17.037Z,1276.88
2018-07-12T10:39:17.035Z,1698.75
2018-07-12T10:40:17.026Z,1558.13
2018-07-12T10:41:17.023Z,1710.00
2018-07-12T10:42:17.015Z,1338.75
2018-07-12T10:43:17.015Z,1170.00
2018-07-12T10:44:17.008Z,2075.63
2018-07-12T10:45:16.999Z,1276.88
2018-07-12T10:46:17.001Z,2351.25
2018-07-12T10:47:16.991Z,1440.00
2018-07-12T10:48:16.986Z,1220.63
2018-07-12T10:49:16.983Z,2756.25
2018-07-12T10:50:16.981Z,2874.38
2018-07-12T10:51:16.976Z,1248.75
2018-07-12T10:52:16.974Z,1063.13
2018-07-12T10:53:16.971Z,1170.00
2018-07-12T10:54:16.959Z,1237.50
2018-07-12T10:55:16.961Z,1243.13
2018-07-12T10:56:16.952Z,2981.25
2018-07-12T10:57:16.955Z,1940.63
2018-07-12T10:58:16.945Z,1389.38
2018-07-12T10:59:16.943Z,2171.25
2018-07-12T11:00:16.939Z,2058.75
2018-07-12T11:01:16.933Z,2638.13
2018-07-12T11:02:16.929Z,2632.50
2018-07-12T11:03:16.933Z,1321.88
2018-07-12T11:04:16.929Z,2761.88
2018-07-12T11:05:16.923Z,2806.88
2018-07-12T11:06:16.916Z,2711.25
2018-07-12T11:07:16.917Z,1305.00
2018-07-12T11:08:16.920Z,1198.13
2018-07-12T11:09:16.921Z,1091.25
2018-07-12T11:10:16.917Z,984.38
2018-07-12T11:11:16.913Z,939.38
2018-07-12T11:12:16.907Z,967.50
2018-07-12T11:13:16.910Z,990.00
2018-07-12T11:14:16.900Z,1040.63
2018-07-12T11:15:16.905Z,1130.63
2018-07-12T11:16:16.897Z,1175.63
2018-07-12T11:17:16.891Z,1226.25
2018-07-12T11:18:16.888Z,1226.25
2018-07-12T11:19:16.884Z,1344.38
2018-07-12T11:20:16.893Z,1929.38
2018-07-12T11:21:16.929Z,2688.75
2018-07-12T11:22:16.871Z,1181.25
2018-07-12T11:23:16.873Z,939.38
2018-07-12T11:24:16.872Z,928.13
2018-07-12T11:25:16.868Z,1951.88
2018-07-12T11:26:16.856Z,1029.38
2018-07-12T11:27:16.856Z,1113.75
2018-07-12T11:28:16.856Z,4820.63
2018-07-12T11:29:16.846Z,5754.38
2018-07-12T11:30:16.858Z,5473.13
2018-07-12T11:31:16.840Z,5563.13
2018-07-12T11:32:16.837Z,5827.50
2018-07-12T11:33:16.842Z,6097.50
2018-07-12T11:34:16.836Z,5979.38
2018-07-12T11:35:16.834Z,2244.38
2018-07-12T11:36:16.866Z,1738.13
2018-07-12T11:37:16.830Z,1276.88
2018-07-12T11:38:16.826Z,1091.25
2018-07-12T11:39:16.833Z,973.13
2018-07-12T11:40:16.860Z,900.00
2018-07-12T11:41:16.820Z,877.50
2018-07-12T11:42:16.831Z,911.25
2018-07-12T11:43:16.817Z,1001.25
2018-07-12T11:44:16.814Z,1018.13
2018-07-12T11:45:16.819Z,1035.00
2018-07-12T11:46:16.811Z,1125.00
2018-07-12T11:47:16.811Z,1186.88
2018-07-12T11:48:16.808Z,1237.50
2018-07-12T11:49:16.808Z,1333.13
2018-07-12T11:50:16.802Z,1642.50
2018-07-12T11:51:16.798Z,5827.50
2018-07-12T11:52:16.786Z,2131.88
2018-07-12T11:53:16.785Z,1771.88
2018-07-12T11:54:16.778Z,1468.13
2018-07-12T11:55:16.775Z,4539.38
2018-07-12T11:56:16.772Z,5433.75
2018-07-12T11:57:16.769Z,1670.63
2018-07-12T11:58:16.766Z,1659.38
2018-07-12T11:59:16.762Z,1833.75
2018-07-12T12:00:16.768Z,3926.25
2018-07-12T12:01:16.778Z,5979.38
2018-07-12T12:02:16.753Z,6204.38
2018-07-12T12:03:16.753Z,6406.88
2018-07-12T12:04:16.753Z,6170.63
2018-07-12T12:05:16.747Z,2598.75
2018-07-12T12:06:16.753Z,1546.88
2018-07-12T12:07:16.770Z,2182.50
2018-07-12T12:08:16.757Z,1333.13
2018-07-12T12:09:16.748Z,1428.75
2018-07-12T12:10:16.761Z,1141.88
2018-07-12T12:11:16.747Z,1001.25
2018-07-12T12:12:16.750Z,916.88
2018-07-12T12:13:16.744Z,888.75
2018-07-12T12:14:16.744Z,911.25
2018-07-12T12:15:16.743Z,967.50
2018-07-12T12:16:16.748Z,1091.25
2018-07-12T12:17:16.737Z,1400.63
2018-07-12T12:18:16.741Z,5855.63
2018-07-12T12:19:16.759Z,2491.88
2018-07-12T12:20:16.728Z,5850.00
2018-07-12T12:21:16.734Z,5805.00
2018-07-12T12:22:16.724Z,5619.38
2018-07-12T12:23:16.722Z,5298.75
2018-07-12T12:24:16.724Z,5028.75
2018-07-12T12:25:16.729Z,5175.00
2018-07-12T12:26:16.728Z,4747.50
2018-07-12T12:27:16.728Z,4635.00
2018-07-12T12:28:16.755Z,5411.25
2018-07-12T12:29:16.732Z,3718.13
2018-07-12T12:30:16.741Z,5011.88
2018-07-12T12:31:16.731Z,5844.38
2018-07-12T12:32:16.737Z,2098.13
2018-07-12T12:33:16.743Z,1203.75
2018-07-12T12:34:16.741Z,1001.25
2018-07-12T12:35:16.748Z,866.25
2018-07-12T12:36:16.750Z,770.63
2018-07-12T12:37:16.754Z,748.13
2018-07-12T12:38:16.757Z,804.38
2018-07-12T12:39:16.753Z,798.75